Time;durP1;ratioP1;P1;durP2;ratioP2;P2;SDS_P1;SDS_P2;PMS_P1;PMS_P2;Temp;Humidity;BMP_temperature;BMP_pressure;BME280_temperature;BME280_humidity;BME280_pressure;Samples;Min_cycle;Max_cycle;Signal;HPM_P1;HPM_P2
2021/10/25 00:00:13;;;;;;;2.25;2.15;;;8.40;99.90;;;;;;5041078;28;20284;-77
2021/10/25 00:02:40;;;;;;;2.58;2.40;;;8.40;99.90;;;;;;5040143;28;20215;-76
2021/10/25 00:05:08;;;;;;;2.10;2.00;;;8.40;99.90;;;;;;5041543;28;20296;-77
2021/10/25 00:07:35;;;;;;;2.38;2.25;;;8.40;99.90;;;;;;5040608;28;20220;-77
2021/10/25 00:10:04;;;;;;;2.03;1.90;;;8.40;99.90;;;;;;5024860;28;20211;-77
2021/10/25 00:12:32;;;;;;;2.15;2.05;;;8.40;99.90;;;;;;5046583;28;20215;-77
2021/10/25 00:14:59;;;;;;;2.03;1.92;;;8.30;99.90;;;;;;5029218;28;20234;-76
2021/10/25 00:17:27;;;;;;;2.30;2.20;;;8.20;99.90;;;;;;5040540;28;20758;-79
2021/10/25 00:19:54;;;;;;;2.45;2.25;;;8.20;99.90;;;;;;5041368;28;20277;-77
2021/10/25 00:22:21;;;;;;;2.30;2.20;;;8.20;99.90;;;;;;5036936;28;20223;-76
2021/10/25 00:24:48;;;;;;;2.40;2.30;;;8.10;99.90;;;;;;5039035;28;20223;-76
2021/10/25 00:27:16;;;;;;;2.70;2.60;;;8.10;99.90;;;;;;5040696;28;20728;-77
2021/10/25 00:29:43;;;;;;;2.10;2.00;;;8.00;99.90;;;;;;5041797;28;20218;-76
2021/10/25 00:32:11;;;;;;;2.63;2.40;;;8.00;99.90;;;;;;5044627;28;20223;-78
2021/10/25 00:34:38;;;;;;;3.22;2.30;;;8.00;99.90;;;;;;5041518;28;20293;-78
2021/10/25 00:37:05;;;;;;;2.10;2.00;;;7.90;99.90;;;;;;5044422;28;20289;-81
2021/10/25 00:39:32;;;;;;;2.88;2.67;;;8.00;99.90;;;;;;5042702;28;20768;-76
2021/10/25 00:42:00;;;;;;;2.35;2.20;;;8.00;99.90;;;;;;5039456;28;20615;-78
2021/10/25 00:44:30;;;;;;;2.10;2.00;;;8.00;99.90;;;;;;5038879;28;20567;-76
2021/10/25 00:46:57;;;;;;;2.30;2.20;;;8.00;99.90;;;;;;5040849;28;24885;-76
2021/10/25 00:49:25;;;;;;;2.30;2.20;;;8.00;99.90;;;;;;5043361;28;20218;-76
2021/10/25 00:51:53;;;;;;;2.95;2.75;;;8.00;99.90;;;;;;5038011;28;20277;-75
2021/10/25 00:54:21;;;;;;;2.70;2.50;;;8.00;99.90;;;;;;5040180;28;20222;-76
2021/10/25 00:56:49;;;;;;;2.53;2.42;;;8.00;99.90;;;;;;5037759;28;20277;-78
2021/10/25 00:59:16;;;;;;;2.60;2.50;;;8.00;99.90;;;;;;5044937;28;20280;-76
2021/10/25 01:01:45;;;;;;;2.70;2.50;;;8.10;99.90;;;;;;5040164;28;20586;-75
2021/10/25 01:04:12;;;;;;;2.83;2.33;;;8.10;99.90;;;;;;5040301;28;20313;-76
2021/10/25 01:06:39;;;;;;;3.17;2.95;;;8.00;99.90;;;;;;5040656;28;20215;-77
2021/10/25 01:09:07;;;;;;;2.65;2.50;;;8.00;99.90;;;;;;5040586;28;20227;-80
2021/10/25 01:11:36;;;;;;;2.38;2.28;;;8.00;99.90;;;;;;5043562;28;20752;-77
2021/10/25 01:14:03;;;;;;;2.30;2.20;;;7.90;99.90;;;;;;5040274;28;20215;-77
2021/10/25 01:16:30;;;;;;;2.97;2.67;;;7.90;99.90;;;;;;5040268;28;20223;-75
2021/10/25 01:18:59;;;;;;;2.67;2.50;;;7.80;99.90;;;;;;5039485;28;20235;-78
2021/10/25 01:21:28;;;;;;;2.40;2.30;;;7.80;99.90;;;;;;5041448;28;21010;-76
2021/10/25 01:23:55;;;;;;;2.70;2.50;;;7.80;99.90;;;;;;5041050;28;20227;-78
2021/10/25 01:26:23;;;;;;;2.40;2.20;;;7.80;99.90;;;;;;5037399;28;20226;-77
2021/10/25 01:28:52;;;;;;;2.90;2.70;;;7.80;99.90;;;;;;5042205;28;20223;-75
2021/10/25 01:31:21;;;;;;;2.40;2.30;;;7.80;99.90;;;;;;5040975;28;20237;-74
2021/10/25 01:33:49;;;;;;;2.50;2.40;;;7.80;99.90;;;;;;5041139;28;20227;-77
2021/10/25 01:36:17;;;;;;;2.45;2.35;;;7.80;99.90;;;;;;5042505;28;20222;-77
2021/10/25 01:38:46;;;;;;;2.20;2.10;;;7.80;99.90;;;;;;5050853;22;20715;-78
2021/10/25 01:41:13;;;;;;;2.55;2.40;;;7.80;99.90;;;;;;5081144;28;20540;-78
2021/10/25 01:43:41;;;;;;;2.47;2.38;;;7.80;99.90;;;;;;5079700;28;20258;-78
2021/10/25 01:46:09;;;;;;;2.85;2.33;;;7.80;99.90;;;;;;5076707;28;20282;-78
2021/10/25 01:48:36;;;;;;;2.42;2.33;;;7.80;99.90;;;;;;5080321;28;20252;-78
2021/10/25 01:51:04;;;;;;;2.40;2.20;;;7.70;99.90;;;;;;5086151;27;20210;-79
2021/10/25 01:53:31;;;;;;;2.78;2.58;;;7.70;99.90;;;;;;5082918;28;20236;-78
2021/10/25 01:56:02;;;;;;;2.80;2.60;;;7.80;99.90;;;;;;5085960;28;20226;-76
2021/10/25 01:58:29;;;;;;;2.55;2.35;;;7.70;99.90;;;;;;5085013;27;20232;-80
2021/10/25 02:00:57;;;;;;;2.20;2.10;;;7.70;99.90;;;;;;5083599;27;20707;-77
2021/10/25 02:03:24;;;;;;;2.95;2.75;;;7.70;99.90;;;;;;5082575;27;20213;-78
2021/10/25 02:05:51;;;;;;;2.63;2.42;;;7.60;99.90;;;;;;5082799;27;20785;-79
2021/10/25 02:08:18;;;;;;;2.58;2.40;;;7.60;99.90;;;;;;5080545;27;20280;-78
2021/10/25 02:10:45;;;;;;;2.50;2.33;;;7.50;99.90;;;;;;5082683;28;20275;-78
2021/10/25 02:13:16;;;;;;;2.50;2.30;;;7.50;99.90;;;;;;5083137;28;20270;-78
2021/10/25 02:15:44;;;;;;;2.58;2.47;;;7.50;99.90;;;;;;5083463;28;20320;-79
2021/10/25 02:18:13;;;;;;;2.85;2.65;;;7.50;99.90;;;;;;5081229;28;20316;-79
2021/10/25 02:20:40;;;;;;;2.42;2.33;;;7.40;99.90;;;;;;5081167;27;20241;-77
2021/10/25 02:23:08;;;;;;;2.42;2.33;;;7.40;99.90;;;;;;5081229;27;20217;-78
2021/10/25 02:25:35;;;;;;;2.42;2.33;;;7.50;99.90;;;;;;5084581;28;20225;-77
2021/10/25 02:28:02;;;;;;;2.70;2.50;;;7.50;99.90;;;;;;5081271;28;20229;-77
2021/10/25 02:30:31;;;;;;;2.70;2.50;;;7.50;99.90;;;;;;5083180;28;20229;-77
2021/10/25 02:32:58;;;;;;;2.70;2.50;;;7.50;99.90;;;;;;5081372;28;20306;-77
2021/10/25 02:35:25;;;;;;;2.70;2.60;;;7.50;99.90;;;;;;5070857;27;20246;-79
2021/10/25 02:37:55;;;;;;;2.70;2.50;;;7.50;99.90;;;;;;5080793;28;20282;-75
2021/10/25 02:40:23;;;;;;;2.33;2.13;;;7.50;99.90;;;;;;5081210;28;20222;-76
2021/10/25 02:42:50;;;;;;;2.20;2.10;;;7.50;99.90;;;;;;5084522;27;20229;-78
2021/10/25 02:45:17;;;;;;;2.45;2.35;;;7.50;99.90;;;;;;5082442;28;20222;-76
2021/10/25 02:47:46;;;;;;;2.20;2.10;;;7.50;99.90;;;;;;5076659;28;20773;-78
2021/10/25 02:50:13;;;;;;;2.97;2.78;;;7.50;99.90;;;;;;5082738;28;20225;-78
2021/10/25 02:52:40;;;;;;;3.00;2.80;;;7.50;99.90;;;;;;5080491;28;20261;-79
2021/10/25 02:55:08;;;;;;;2.72;2.53;;;7.50;99.90;;;;;;5081589;28;20363;-76
2021/10/25 02:57:36;;;;;;;2.70;2.60;;;7.50;99.90;;;;;;5082009;27;20286;-76
2021/10/25 03:00:05;;;;;;;2.65;2.45;;;7.40;99.90;;;;;;5077331;28;20271;-78
2021/10/25 03:02:33;;;;;;;2.92;2.58;;;7.30;99.90;;;;;;5084107;28;20220;-79
2021/10/25 03:05:01;;;;;;;2.25;2.15;;;7.30;99.90;;;;;;5080371;28;20229;-76
2021/10/25 03:07:28;;;;;;;2.78;2.58;;;7.40;99.90;;;;;;5084796;27;20586;-77
2021/10/25 03:09:55;;;;;;;2.17;2.08;;;7.40;99.90;;;;;;5085943;27;20221;-75
2021/10/25 03:12:23;;;;;;;2.05;1.90;;;7.40;99.90;;;;;;5082819;28;20221;-77
2021/10/25 03:14:50;;;;;;;2.67;2.47;;;7.40;99.90;;;;;;5078344;27;20241;-76
2021/10/25 03:17:17;;;;;;;2.58;2.38;;;7.40;99.90;;;;;;5081293;27;20228;-77
2021/10/25 03:19:45;;;;;;;2.85;2.65;;;7.40;99.90;;;;;;5086434;27;20231;-77
2021/10/25 03:22:13;;;;;;;3.10;2.90;;;7.40;99.90;;;;;;5091296;27;20636;-78
2021/10/25 03:24:41;;;;;;;2.60;2.50;;;7.40;99.90;;;;;;5086913;28;20227;-77
2021/10/25 03:27:09;;;;;;;2.33;2.22;;;7.40;99.90;;;;;;5083100;28;20765;-78
2021/10/25 03:29:36;;;;;;;2.75;2.55;;;7.40;99.90;;;;;;5089118;28;20607;-78
2021/10/25 03:32:04;;;;;;;2.30;2.20;;;7.40;99.90;;;;;;5086769;28;20636;-79
2021/10/25 03:34:31;;;;;;;2.45;2.25;;;7.30;99.90;;;;;;5082556;28;20270;-79
2021/10/25 03:36:59;;;;;;;2.70;2.50;;;7.30;99.90;;;;;;5087732;27;20260;-79
2021/10/25 03:39:31;;;;;;;2.17;2.08;;;7.30;99.90;;;;;;5085538;28;20512;-76
2021/10/25 03:41:59;;;;;;;2.92;2.60;;;7.20;99.90;;;;;;5086354;28;20233;-79
2021/10/25 03:44:29;;;;;;;2.13;2.03;;;7.20;99.90;;;;;;5087922;28;20278;-79
2021/10/25 03:47:03;;;;;;;2.03;1.92;;;7.20;99.90;;;;;;5084114;28;20217;-77
2021/10/25 03:49:34;;;;;;;2.80;2.70;;;7.20;99.90;;;;;;5082673;28;20316;-79
2021/10/25 03:52:08;;;;;;;3.05;2.80;;;7.20;99.90;;;;;;5089173;27;20592;-79
2021/10/25 03:54:43;;;;;;;2.53;2.40;;;7.20;99.90;;;;;;5085247;27;20725;-78
2021/10/25 04:00:08;;;;;;;2.78;2.58;;;7.20;99.90;;;;;;5049755;28;20225;-78
2021/10/25 04:02:49;;;;;;;3.08;2.88;;;7.20;99.90;;;;;;5089925;28;20214;-79
2021/10/25 04:27:17;;;;;;;2.92;2.75;;;7.10;99.90;;;;;;5082369;28;20298;-79
2021/10/25 04:29:47;;;;;;;2.85;2.65;;;7.10;99.90;;;;;;5081755;28;20703;-80
2021/10/25 04:32:14;;;;;;;2.53;2.42;;;7.10;99.90;;;;;;5088463;27;20217;-79
2021/10/25 04:34:41;;;;;;;2.67;2.47;;;7.10;99.90;;;;;;5084693;27;20297;-78
2021/10/25 04:37:08;;;;;;;2.80;2.70;;;7.10;99.90;;;;;;5089802;27;20225;-78
2021/10/25 04:39:35;;;;;;;2.50;2.40;;;7.10;99.90;;;;;;5085731;28;20228;-78
2021/10/25 04:42:02;;;;;;;2.60;2.40;;;7.10;99.90;;;;;;5082800;28;20314;-78
2021/10/25 04:44:31;;;;;;;2.50;2.30;;;7.10;99.90;;;;;;5080209;27;20221;-79
2021/10/25 04:46:58;;;;;;;2.63;2.42;;;7.10;99.90;;;;;;5080173;28;20321;-78
2021/10/25 04:49:25;;;;;;;3.22;3.03;;;7.00;99.90;;;;;;5083569;27;20224;-78
2021/10/25 04:51:52;;;;;;;1.80;1.70;;;7.00;99.90;;;;;;5083497;28;20225;-78
2021/10/25 04:54:19;;;;;;;2.70;2.60;;;7.00;99.90;;;;;;5085952;28;20222;-77
2021/10/25 04:56:46;;;;;;;2.63;2.42;;;7.00;99.90;;;;;;5079311;28;20223;-78
2021/10/25 04:59:13;;;;;;;2.88;2.67;;;7.00;99.90;;;;;;5083486;28;20221;-79
2021/10/25 05:01:42;;;;;;;2.60;2.45;;;6.90;99.90;;;;;;5086332;28;20636;-78
2021/10/25 05:04:09;;;;;;;3.03;2.83;;;6.90;99.90;;;;;;5088215;27;20221;-77
2021/10/25 05:06:36;;;;;;;2.25;2.15;;;6.90;99.90;;;;;;5083053;28;20218;-78
2021/10/25 05:09:03;;;;;;;2.65;2.45;;;6.90;99.90;;;;;;5086939;28;20286;-77
2021/10/25 05:11:30;;;;;;;2.40;2.30;;;7.00;99.90;;;;;;5085118;27;20230;-77
2021/10/25 05:13:57;;;;;;;2.38;2.28;;;7.00;99.90;;;;;;5082236;27;20217;-77
2021/10/25 05:16:24;;;;;;;2.20;1.83;;;7.00;99.90;;;;;;5084706;27;20682;-78
2021/10/25 05:18:53;;;;;;;2.28;2.17;;;7.00;99.90;;;;;;5084441;27;20273;-79
2021/10/25 05:21:20;;;;;;;2.22;2.03;;;7.00;99.90;;;;;;5087146;27;20695;-78
2021/10/25 05:23:47;;;;;;;2.10;2.00;;;7.00;99.90;;;;;;5090202;27;20646;-79
2021/10/25 05:26:14;;;;;;;2.55;2.45;;;7.00;99.90;;;;;;5078996;28;20232;-79
2021/10/25 05:28:41;;;;;;;2.42;2.30;;;7.00;99.90;;;;;;5083548;28;20229;-76
2021/10/25 05:31:11;;;;;;;2.65;2.45;;;6.90;99.90;;;;;;5075045;28;20218;-76
2021/10/25 05:33:39;;;;;;;2.50;2.40;;;6.90;99.90;;;;;;5075398;27;20217;-77
2021/10/25 05:36:08;;;;;;;2.63;2.42;;;6.90;99.90;;;;;;5071499;28;20221;-79
2021/10/25 05:38:35;;;;;;;3.20;2.83;;;6.80;99.90;;;;;;5071520;28;20218;-79
2021/10/25 05:41:02;;;;;;;2.30;2.20;;;6.80;99.90;;;;;;5069610;28;20217;-78
2021/10/25 05:43:29;;;;;;;2.40;2.30;;;6.80;99.90;;;;;;5076219;28;20233;-79
2021/10/25 05:45:57;;;;;;;2.72;2.53;;;6.80;99.90;;;;;;5075013;28;20650;-78
2021/10/25 05:48:24;;;;;;;2.20;2.03;;;6.80;99.90;;;;;;5073085;27;20216;-78
2021/10/25 05:50:52;;;;;;;2.38;2.28;;;6.70;99.90;;;;;;5048357;27;20235;-79
2021/10/25 05:53:20;;;;;;;2.55;2.38;;;6.70;99.90;;;;;;5086664;27;20222;-79
2021/10/25 05:55:48;;;;;;;2.85;2.65;;;6.80;99.90;;;;;;5070860;28;20214;-79
2021/10/25 05:58:19;;;;;;;2.30;2.20;;;6.80;99.90;;;;;;5074560;28;20568;-79
2021/10/25 06:00:50;;;;;;;2.50;2.30;;;6.80;99.90;;;;;;5071935;28;20225;-78
2021/10/25 06:03:20;;;;;;;2.40;2.30;;;6.70;99.90;;;;;;5076999;27;20339;-79
2021/10/25 06:05:47;;;;;;;2.58;2.38;;;6.80;99.90;;;;;;5046489;28;20237;-78
2021/10/25 06:08:15;;;;;;;2.53;2.40;;;6.80;99.90;;;;;;5073023;28;20222;-79
2021/10/25 06:10:44;;;;;;;2.35;2.25;;;6.90;99.90;;;;;;5074246;28;20221;-76
2021/10/25 06:13:18;;;;;;;2.17;2.08;;;6.90;99.90;;;;;;5073056;28;20649;-78
2021/10/25 06:15:53;;;;;;;2.70;2.50;;;6.90;99.90;;;;;;5072018;28;21938;-78
2021/10/25 06:18:20;;;;;;;2.53;2.42;;;7.00;99.90;;;;;;5072825;28;20237;-78
2021/10/25 06:20:47;;;;;;;2.35;2.25;;;7.00;99.90;;;;;;5077293;28;20221;-78
2021/10/25 06:23:16;;;;;;;2.10;2.00;;;7.10;99.90;;;;;;5072037;28;20594;-77
2021/10/25 06:25:50;;;;;;;2.40;2.30;;;7.10;99.90;;;;;;5078956;28;20233;-79
2021/10/25 06:28:17;;;;;;;2.35;2.25;;;7.10;99.90;;;;;;5076926;28;21081;-77
2021/10/25 06:30:45;;;;;;;3.70;2.88;;;7.20;99.90;;;;;;5078336;28;20294;-77
2021/10/25 06:33:15;;;;;;;2.50;2.30;;;7.20;99.90;;;;;;5078270;28;20891;-77
2021/10/25 06:35:50;;;;;;;2.50;2.40;;;7.20;99.90;;;;;;5074163;27;20221;-75
2021/10/25 06:38:17;;;;;;;2.45;2.15;;;7.20;99.90;;;;;;5052997;27;20370;-78
2021/10/25 06:40:48;;;;;;;2.50;2.40;;;7.20;99.90;;;;;;5083858;27;20226;-76
2021/10/25 06:43:16;;;;;;;2.38;2.17;;;7.20;99.90;;;;;;5073783;28;20240;-76
2021/10/25 06:45:43;;;;;;;3.00;2.80;;;7.30;99.90;;;;;;5070258;28;20222;-76
2021/10/25 06:48:10;;;;;;;2.60;2.50;;;7.30;99.90;;;;;;5070030;28;20233;-75
2021/10/25 06:50:39;;;;;;;2.67;2.50;;;7.30;99.90;;;;;;5075114;28;20217;-80
2021/10/25 06:53:08;;;;;;;2.55;2.15;;;7.40;99.90;;;;;;5071757;28;20220;-76
2021/10/25 06:55:36;;;;;;;2.75;2.55;;;7.40;99.90;;;;;;5072678;28;20214;-78
2021/10/25 06:58:05;;;;;;;3.05;2.85;;;7.50;99.90;;;;;;5064152;28;20217;-78
2021/10/25 07:00:32;;;;;;;2.72;2.42;;;7.50;99.90;;;;;;5072459;28;20577;-78
2021/10/25 07:02:59;;;;;;;2.83;2.63;;;7.60;99.90;;;;;;5072908;28;20746;-75
2021/10/25 07:05:29;;;;;;;2.65;2.55;;;7.70;99.90;;;;;;5075457;28;20294;-78
2021/10/25 07:07:56;;;;;;;2.50;2.30;;;7.80;99.90;;;;;;5050414;28;20528;-75
2021/10/25 07:10:23;;;;;;;2.40;2.30;;;7.90;99.90;;;;;;5066747;28;20283;-79
2021/10/25 07:12:51;;;;;;;2.42;2.33;;;7.90;99.90;;;;;;5073132;28;20302;-80
2021/10/25 07:15:20;;;;;;;2.25;2.05;;;8.00;99.90;;;;;;5073296;27;20494;-80
2021/10/25 07:17:52;;;;;;;2.63;2.50;;;8.10;99.90;;;;;;5058980;28;20227;-77
2021/10/25 07:20:30;;;;;;;2.75;2.55;;;8.10;99.90;;;;;;5078937;27;20283;-78
2021/10/25 07:23:23;;;;;;;3.00;2.80;;;8.30;99.90;;;;;;5072886;28;20263;-75
2021/10/25 08:07:19;;;;;;;3.20;3.00;;;9.00;99.90;;;;;;5054326;28;20354;-77
2021/10/25 08:09:52;;;;;;;2.83;2.60;;;9.20;99.90;;;;;;5058893;28;20254;-75
2021/10/25 08:12:23;;;;;;;2.75;2.53;;;9.30;99.90;;;;;;5062983;28;20218;-74
2021/10/25 08:14:53;;;;;;;3.45;3.25;;;9.50;99.90;;;;;;5060325;28;20279;-76
2021/10/25 08:17:22;;;;;;;2.30;2.15;;;9.60;99.90;;;;;;5055885;28;20225;-76
2021/10/25 08:19:52;;;;;;;2.88;2.67;;;9.80;99.90;;;;;;5054842;28;20858;-76
2021/10/25 08:22:19;;;;;;;2.80;2.60;;;9.90;99.90;;;;;;5055942;28;20656;-77
2021/10/25 08:24:48;;;;;;;3.63;2.53;;;9.90;99.90;;;;;;5057100;28;20711;-74
2021/10/25 08:27:17;;;;;;;2.95;2.40;;;10.00;99.90;;;;;;5058408;28;20217;-74
2021/10/25 08:29:46;;;;;;;3.30;3.00;;;10.00;99.90;;;;;;5057502;28;20730;-76
2021/10/25 08:32:23;;;;;;;3.30;3.00;;;10.10;99.90;;;;;;5053021;28;20787;-77
2021/10/25 08:35:16;;;;;;;4.47;3.22;;;10.10;99.90;;;;;;5060958;28;20685;-77
2021/10/25 08:40:30;;;;;;;3.40;3.10;;;10.30;99.90;;;;;;5058778;28;20388;-77
2021/10/25 08:42:57;;;;;;;3.20;2.90;;;10.40;99.90;;;;;;5058687;28;20231;-79
2021/10/25 08:45:29;;;;;;;3.47;3.17;;;10.60;99.90;;;;;;5059195;28;20222;-82
2021/10/25 08:47:58;;;;;;;3.35;3.05;;;10.80;99.90;;;;;;5055189;28;20313;-80
2021/10/25 08:50:33;;;;;;;3.55;3.17;;;10.80;99.90;;;;;;5038548;28;20665;-76
2021/10/25 08:53:00;;;;;;;3.97;3.33;;;10.90;99.90;;;;;;5062409;28;20897;-78
2021/10/25 08:55:27;;;;;;;3.25;2.95;;;11.00;99.90;;;;;;5056065;28;20230;-79
2021/10/25 08:57:55;;;;;;;3.80;3.40;;;11.20;99.90;;;;;;5060268;28;20225;-77
2021/10/25 09:00:23;;;;;;;3.20;2.90;;;11.40;99.90;;;;;;5063126;28;20309;-79
2021/10/25 09:03:02;;;;;;;3.75;3.38;;;11.50;99.90;;;;;;5062671;28;20494;-75
2021/10/25 09:05:31;;;;;;;3.83;3.20;;;11.50;99.90;;;;;;5058204;28;20222;-77
2021/10/25 09:08:02;;;;;;;3.47;3.17;;;11.50;99.90;;;;;;5065142;28;20247;-78
2021/10/25 09:10:33;;;;;;;3.05;2.80;;;11.50;99.90;;;;;;5063728;28;20234;-75
2021/10/25 09:13:03;;;;;;;3.22;2.90;;;11.60;99.90;;;;;;5064056;28;20295;-80
2021/10/25 09:15:33;;;;;;;3.42;3.13;;;11.70;99.90;;;;;;5068234;28;20241;-76
2021/10/25 09:18:06;;;;;;;3.67;3.35;;;11.80;99.90;;;;;;5067300;28;20221;-77
2021/10/25 09:20:43;;;;;;;3.33;3.03;;;12.00;99.90;;;;;;5047565;28;20279;-78
2021/10/25 09:23:12;;;;;;;3.53;3.22;;;12.00;99.90;;;;;;5060691;28;20224;-80
2021/10/25 09:25:40;;;;;;;4.70;2.95;;;12.30;99.90;;;;;;5060197;28;20287;-76
2021/10/25 09:28:16;;;;;;;3.08;2.72;;;12.60;99.90;;;;;;5033419;28;20641;-79
2021/10/25 09:30:48;;;;;;;2.63;2.42;;;13.00;99.90;;;;;;5057860;28;20241;-73
2021/10/25 09:33:20;;;;;;;5.28;2.90;;;13.40;99.90;;;;;;5060067;28;20222;-76
2021/10/25 09:35:57;;;;;;;3.10;2.90;;;13.60;99.90;;;;;;5044542;28;20228;-76
2021/10/25 09:38:31;;;;;;;2.65;2.45;;;13.60;99.90;;;;;;5062502;28;20214;-76
2021/10/25 09:49:51;;;;;;;3.00;2.60;;;13.90;99.90;;;;;;5067113;28;20225;-77
2021/10/25 09:52:18;;;;;;;2.67;2.47;;;13.90;99.90;;;;;;5065369;28;20214;-76
2021/10/25 09:54:56;;;;;;;2.85;2.42;;;13.80;99.90;;;;;;5068815;28;20662;-74
2021/10/25 09:57:25;;;;;;;2.50;2.30;;;14.00;99.90;;;;;;5064967;28;20213;-74
2021/10/25 09:59:56;;;;;;;2.88;2.67;;;14.20;99.90;;;;;;5068557;28;20249;-76
2021/10/25 10:02:25;;;;;;;2.80;2.60;;;14.20;99.90;;;;;;5065625;28;20714;-76
2021/10/25 10:04:57;;;;;;;2.45;2.25;;;14.30;99.90;;;;;;5065724;28;22055;-76
2021/10/25 10:07:26;;;;;;;2.78;2.50;;;14.40;99.90;;;;;;5067897;28;20222;-77
2021/10/25 10:09:54;;;;;;;3.00;2.55;;;14.50;99.90;;;;;;5041934;28;20217;-75
2021/10/25 10:12:24;;;;;;;2.22;2.03;;;14.60;99.90;;;;;;5065324;28;20218;-78
2021/10/25 10:14:55;;;;;;;2.55;2.28;;;14.60;99.90;;;;;;5062164;28;20222;-77
2021/10/25 10:17:28;;;;;;;2.80;2.60;;;14.60;99.90;;;;;;5069522;28;20910;-76
2021/10/25 10:20:00;;;;;;;2.90;2.55;;;14.40;99.90;;;;;;5065414;28;20225;-76
2021/10/25 10:22:30;;;;;;;3.92;2.28;;;14.30;99.90;;;;;;5071802;28;21564;-77
2021/10/25 10:24:57;;;;;;;2.70;2.50;;;14.30;99.90;;;;;;5065924;28;20695;-77
2021/10/25 10:27:24;;;;;;;2.58;2.38;;;14.40;99.90;;;;;;5069553;28;20247;-77
2021/10/25 10:29:54;;;;;;;3.72;2.75;;;14.50;99.90;;;;;;5067021;28;20248;-77
2021/10/25 10:32:22;;;;;;;3.00;2.67;;;14.50;99.90;;;;;;5063353;28;20229;-74
2021/10/25 10:34:51;;;;;;;4.55;2.83;;;14.50;99.90;;;;;;5065125;28;22036;-76
2021/10/25 10:37:21;;;;;;;2.85;2.65;;;14.60;99.90;;;;;;5067134;28;20226;-77
2021/10/25 10:40:05;;;;;;;3.67;2.78;;;14.70;99.90;;;;;;5072521;28;20800;-76
2021/10/25 10:42:34;;;;;;;2.67;2.47;;;14.60;99.90;;;;;;5072278;28;20588;-75
2021/10/25 10:45:08;;;;;;;3.00;2.70;;;14.60;99.90;;;;;;5071109;27;20217;-77
2021/10/25 10:47:43;;;;;;;2.47;2.20;;;14.70;99.90;;;;;;5070801;28;20221;-74
2021/10/25 10:50:20;;;;;;;2.50;2.30;;;14.80;99.90;;;;;;5065173;28;20221;-76
2021/10/25 10:52:59;;;;;;;3.47;2.35;;;14.80;99.90;;;;;;5067493;28;20445;-75
2021/10/25 10:55:27;;;;;;;2.30;2.20;;;14.60;99.90;;;;;;5052450;28;20228;-77
2021/10/25 11:00:35;;;;;;;2.30;2.10;;;14.10;99.90;;;;;;5066358;28;20226;-76
2021/10/25 11:03:12;;;;;;;2.60;2.40;;;13.90;99.90;;;;;;5051359;28;20880;-76
2021/10/25 11:05:41;;;;;;;2.47;2.28;;;13.80;99.90;;;;;;5051436;28;20275;-74
2021/10/25 11:08:11;;;;;;;2.75;2.55;;;13.80;99.90;;;;;;5049989;28;20217;-75
2021/10/25 11:10:40;;;;;;;2.60;2.40;;;13.50;99.90;;;;;;5021488;28;20254;-75
2021/10/25 11:13:15;;;;;;;3.10;2.30;;;13.50;99.90;;;;;;5055343;28;20323;-75
2021/10/25 11:15:53;;;;;;;2.45;2.25;;;13.50;99.90;;;;;;5035334;28;20222;-75
2021/10/25 11:18:26;;;;;;;2.80;2.38;;;13.40;99.90;;;;;;5037165;28;20229;-76
2021/10/25 11:21:05;;;;;;;3.13;2.20;;;13.40;99.90;;;;;;5039379;28;20632;-73
2021/10/25 11:23:40;;;;;;;2.63;2.42;;;13.50;99.90;;;;;;5038119;28;20230;-76
2021/10/25 11:26:11;;;;;;;2.42;2.22;;;13.50;99.90;;;;;;5051586;28;20217;-74
2021/10/25 11:28:38;;;;;;;2.40;2.20;;;13.30;99.90;;;;;;5059626;28;20218;-76
2021/10/25 11:31:07;;;;;;;2.35;2.15;;;13.30;99.90;;;;;;5069406;28;20222;-77
2021/10/25 11:33:36;;;;;;;2.70;2.50;;;13.40;99.90;;;;;;5052974;28;20594;-75
2021/10/25 11:36:03;;;;;;;2.50;2.30;;;13.50;99.90;;;;;;5056284;28;20574;-76
2021/10/25 11:38:33;;;;;;;2.72;2.50;;;13.50;99.90;;;;;;5060676;28;20316;-76
2021/10/25 11:41:04;;;;;;;2.50;2.10;;;13.40;99.90;;;;;;5059186;28;20256;-75
2021/10/25 11:43:31;;;;;;;5.55;2.65;;;13.50;99.90;;;;;;5061103;28;20299;-76
2021/10/25 11:45:59;;;;;;;2.90;2.10;;;13.30;99.90;;;;;;5056573;28;20230;-76
2021/10/25 11:48:31;;;;;;;2.47;2.28;;;13.30;99.90;;;;;;5056026;28;20213;-77
2021/10/25 11:51:02;;;;;;;2.60;2.40;;;13.30;99.90;;;;;;5057269;28;20238;-76
2021/10/25 11:53:30;;;;;;;2.70;2.50;;;13.20;99.90;;;;;;5049517;28;20226;-75
2021/10/25 11:55:58;;;;;;;2.30;2.10;;;13.00;99.90;;;;;;5060212;28;21304;-76
2021/10/25 11:58:27;;;;;;;3.50;2.30;;;12.90;99.90;;;;;;5056351;28;20279;-75
2021/10/25 12:01:02;;;;;;;4.25;2.50;;;12.90;99.90;;;;;;5056316;28;20230;-76
2021/10/25 12:03:30;;;;;;;2.83;2.25;;;12.90;99.90;;;;;;5059910;28;20221;-75
2021/10/25 12:05:58;;;;;;;2.58;2.38;;;12.80;99.90;;;;;;5056501;28;20306;-76
2021/10/25 12:08:25;;;;;;;2.50;2.30;;;12.80;99.90;;;;;;5056728;28;20222;-77
2021/10/25 12:10:52;;;;;;;2.75;2.55;;;13.00;99.90;;;;;;5058519;28;20275;-76
2021/10/25 12:13:19;;;;;;;2.53;2.22;;;13.10;99.90;;;;;;5058183;28;20245;-76
2021/10/25 12:15:50;;;;;;;3.40;2.25;;;13.00;99.90;;;;;;5053774;28;20599;-75
2021/10/25 12:18:19;;;;;;;2.20;2.00;;;12.90;99.90;;;;;;5060545;28;20590;-77
2021/10/25 12:20:49;;;;;;;2.30;2.20;;;12.90;99.90;;;;;;5056421;28;20313;-74
2021/10/25 12:23:18;;;;;;;3.05;2.22;;;12.90;99.90;;;;;;5067413;28;20214;-78
2021/10/25 12:25:52;;;;;;;2.47;2.28;;;12.90;99.90;;;;;;5061566;28;20719;-75
2021/10/25 12:28:21;;;;;;;2.88;2.58;;;12.80;99.90;;;;;;5057870;28;20218;-77
2021/10/25 12:30:51;;;;;;;2.85;2.10;;;12.70;99.90;;;;;;5038584;28;20225;-77
2021/10/25 12:33:22;;;;;;;4.47;2.20;;;12.70;99.90;;;;;;5019110;28;20223;-76
2021/10/25 12:35:51;;;;;;;2.60;2.40;;;12.70;99.90;;;;;;5055195;28;20217;-77
2021/10/25 12:38:21;;;;;;;2.30;2.10;;;12.70;99.90;;;;;;5062028;28;20218;-77
2021/10/25 12:40:52;;;;;;;2.17;2.08;;;12.70;99.90;;;;;;5054275;28;20229;-76
2021/10/25 12:43:20;;;;;;;2.47;2.28;;;12.70;99.90;;;;;;5067917;28;20228;-77
2021/10/25 12:45:57;;;;;;;2.35;2.15;;;12.70;99.90;;;;;;5059056;28;20225;-77
2021/10/25 12:48:25;;;;;;;2.13;2.00;;;12.60;99.90;;;;;;5061272;28;20227;-77
2021/10/25 12:51:02;;;;;;;3.40;2.40;;;12.60;99.90;;;;;;5060921;28;20249;-76
2021/10/25 12:53:31;;;;;;;3.55;2.42;;;12.60;99.90;;;;;;5062840;28;20225;-76
2021/10/25 12:55:59;;;;;;;2.40;2.20;;;12.60;99.90;;;;;;5066406;28;20229;-77
2021/10/25 12:58:27;;;;;;;2.72;2.22;;;12.70;99.90;;;;;;5067382;28;20570;-76
2021/10/25 13:00:54;;;;;;;2.25;2.05;;;12.60;99.90;;;;;;5053656;28;21045;-74
2021/10/25 13:03:29;;;;;;;2.67;2.10;;;12.60;99.90;;;;;;5060788;28;20222;-76
2021/10/25 13:06:06;;;;;;;2.45;2.20;;;12.60;99.90;;;;;;5071283;28;20274;-76
2021/10/25 13:08:34;;;;;;;3.03;2.47;;;12.60;99.90;;;;;;5037892;28;20737;-77
2021/10/25 13:11:02;;;;;;;2.45;2.25;;;12.70;99.90;;;;;;5030948;28;20227;-76
2021/10/25 13:13:32;;;;;;;1.80;1.70;;;12.80;99.90;;;;;;5016315;28;20238;-76
2021/10/25 13:15:59;;;;;;;2.13;2.03;;;12.90;99.90;;;;;;5053056;28;20222;-77
2021/10/25 13:18:26;;;;;;;2.30;2.10;;;13.00;99.90;;;;;;5040937;28;20615;-77
2021/10/25 13:20:54;;;;;;;2.08;1.98;;;13.00;99.90;;;;;;5056993;28;20232;-77
2021/10/25 13:23:23;;;;;;;2.17;2.08;;;12.90;99.90;;;;;;5071935;28;20592;-76
2021/10/25 13:25:50;;;;;;;2.72;2.00;;;13.00;99.90;;;;;;5072316;28;20225;-77
2021/10/25 13:28:18;;;;;;;2.33;2.20;;;12.90;99.90;;;;;;5060951;28;20213;-76
2021/10/25 13:30:45;;;;;;;2.72;2.03;;;12.90;99.90;;;;;;5067131;28;20556;-75
2021/10/25 13:33:13;;;;;;;2.10;1.88;;;12.90;99.90;;;;;;5069411;28;20217;-76
2021/10/25 13:35:40;;;;;;;2.58;2.20;;;12.90;99.90;;;;;;5058015;28;20253;-77
2021/10/25 13:38:08;;;;;;;2.17;2.00;;;12.90;99.90;;;;;;5051376;28;20238;-77
2021/10/25 13:40:37;;;;;;;2.30;2.10;;;12.90;99.90;;;;;;5052734;22;20231;-71
2021/10/25 13:43:04;;;;;;;2.67;2.08;;;13.00;99.90;;;;;;5001897;28;20226;-69
2021/10/25 13:45:32;;;;;;;2.70;2.20;;;13.00;99.90;;;;;;4994329;28;20220;-69
2021/10/25 13:48:00;;;;;;;2.22;1.90;;;13.00;99.90;;;;;;4999165;28;20235;-69
2021/10/25 13:50:27;;;;;;;2.25;2.05;;;12.90;99.90;;;;;;4992737;28;20224;-69
2021/10/25 13:52:54;;;;;;;2.10;2.00;;;12.80;99.90;;;;;;4983053;28;20239;-69
2021/10/25 13:55:21;;;;;;;2.05;1.95;;;12.90;99.90;;;;;;4991232;28;20216;-70
2021/10/25 13:57:51;;;;;;;2.70;2.28;;;12.90;99.90;;;;;;4981435;28;20296;-69
2021/10/25 14:00:18;;;;;;;2.47;2.20;;;12.90;99.90;;;;;;4985725;28;20243;-69
2021/10/25 14:02:47;;;;;;;2.53;2.30;;;12.90;99.90;;;;;;4979493;28;20225;-68
2021/10/25 14:05:17;;;;;;;2.58;2.38;;;12.90;99.90;;;;;;4975485;28;20231;-69
2021/10/25 14:07:45;;;;;;;2.53;2.33;;;12.70;99.90;;;;;;4984755;28;20227;-68
2021/10/25 14:10:16;;;;;;;2.47;2.33;;;12.60;99.90;;;;;;4983972;28;20290;-68
2021/10/25 14:12:44;;;;;;;2.88;2.55;;;12.60;99.90;;;;;;4984383;28;20232;-69
2021/10/25 14:15:28;;;;;;;2.47;2.28;;;12.60;99.90;;;;;;4986616;28;20549;-69
2021/10/25 14:17:57;;;;;;;2.45;2.22;;;12.50;99.90;;;;;;4984563;28;20247;-68
2021/10/25 14:20:27;;;;;;;2.50;1.90;;;12.60;99.90;;;;;;4980259;28;20225;-69
2021/10/25 14:22:57;;;;;;;2.50;2.28;;;12.60;99.90;;;;;;4987121;28;20316;-69